SA3 weather

CLOSED Port-Cartier Airport
Quebec, Canada

Public forecast

Using degrees Celsius for public forecast. Weather courtesy of forecast.io.

Closest aviation weather report (METAR) to Port-Cartier Airport

Closest report is Sept-Îles Airport, 25.9 nm (48.1 km) ENE. Retrieved 2020/06/04 05:00 UTC (50 minutes ago):

CYZV 040500Z 12003KT 15SM -RA OVC045 06/04 A2947 RMK SC8 SLP981

Closest aviation forecast (TAF) to Port-Cartier Airport

Closest forecast is Sept-Îles Airport, 25.9 nm (48.1 km) ENE. Retrieved 2020-06-04 00:45 UTC (5 hours ago):

TAF TAF CYZV 032339Z 0400/0424 26008KT P6SM -RA FEW020 OVC040 TEMPO 0400/0406 5SM -RA BR BKN020 OVC040 FM040600 VRB03KT P6SM BKN030 OVC070 FM041100 20006KT P6SM FEW070 SCT180 FM041500 22012G22KT P6SM SCT050 SCT180 RMK NXT FCST BY 040600Z